EST,Max TemperatureF,Mean TemperatureF,Min TemperatureF,Max Dew PointF,MeanDew PointF,Min DewpointF,Max Humidity, Mean Humidity, Min Humidity, Max Sea Level PressureIn, Mean Sea Level PressureIn, Min Sea Level PressureIn, Max VisibilityMiles, Mean VisibilityMiles, Min VisibilityMiles, Max Wind SpeedMPH, Mean Wind SpeedMPH, Max Gust SpeedMPH,PrecipitationIn, CloudCover, Events, WindDirDegrees
2013-2-1,26,21,15,15,7,2,67,53,43,30.03,29.75,29.49,10,10,7,17,10,28,0.00,,Snow,284
2013-2-2,23,16,10,17,7,1,94,66,44,30.16,30.07,30.01,10,9,4,10,5,18,0.00,,Snow,279
2013-2-3,28,18,7,17,12,5,95,75,44,30.01,29.86,29.69,10,10,7,6,0,,0.00,,Snow,123
2013-2-4,26,20,14,16,3,-10,87,49,20,29.86,29.73,29.66,10,10,7,21,8,34,0.00,,Snow,278
2013-2-5,24,14,5,11,1,-6,77,54,31,30.00,29.93,29.86,10,10,10,9,4,,0.00,,,291
2013-2-6,32,24,14,24,11,-12,91,65,27,30.29,30.00,29.90,10,9,2,15,3,24,0.00,,Snow,298
2013-2-7,21,14,8,0,-7,-10,53,39,26,30.52,30.43,30.28,10,10,7,13,7,22,0.00,,,271
2013-2-8,21,17,13,17,11,-3,92,76,40,30.47,30.22,29.83,10,4,0,16,5,24,0.04,,Snow,114
2013-2-9,20,16,12,19,7,-2,93,70,49,30.22,29.94,29.76,10,5,0,22,12,34,0.11,,Snow,284
2013-2-10,31,18,5,6,-2,-7,89,43,21,30.39,30.31,30.23,10,10,7,20,12,30,0.00,,,283
2013-2-11,28,16,4,28,16,1,99,91,71,30.32,29.96,29.58,10,5,0,5,0,,0.17,,Fog-Snow,84
2013-2-12,39,32,25,32,27,24,100,75,59,29.80,29.64,29.57,10,9,3,17,6,28,0.00,,,292
2013-2-13,36,30,24,24,21,17,91,66,46,29.82,29.77,29.73,10,10,10,8,4,,0.00,,,281
2013-2-14,36,29,22,23,20,17,91,75,46,29.96,29.86,29.69,10,10,10,12,2,18,0.00,,,284
2013-2-15,47,32,16,26,22,16,96,72,36,29.96,29.91,29.85,10,10,7,12,1,18,0.00,,Snow,269
2013-2-16,33,28,23,27,17,4,89,62,41,29.94,29.89,29.77,10,10,4,13,5,17,0.00,,Snow,281
2013-2-17,23,18,12,8,3,0,72,56,41,29.76,29.56,29.43,10,10,7,28,14,39,0.00,,,292
2013-2-18,25,16,8,1,-4,-10,65,43,21,30.05,29.90,29.63,10,10,10,25,19,39,0.00,,Snow,285
2013-2-19,38,25,12,32,7,-10,99,49,20,30.12,29.92,29.56,10,8,1,15,6,22,0.05,,Rain-Snow,73
2013-2-20,34,28,22,34,22,13,100,76,59,29.69,29.58,29.48,10,8,1,17,7,26,0.06,,Snow,279
2013-2-21,23,18,14,17,11,6,82,70,56,30.21,29.89,29.70,10,8,2,21,10,32,0.00,,Snow,288
2013-2-22,38,24,11,23,18,9,95,69,44,30.39,30.30,30.22,10,10,10,14,6,25,0.00,,,294
2013-2-23,32,30,27,32,27,21,99,87,67,30.29,30.15,29.96,10,6,1,8,3,,0.14,,Snow,90
2013-2-24,34,32,31,33,31,29,99,97,90,29.95,29.83,29.74,10,4,1,6,0,,0.11,,Snow,267
2013-2-25,37,34,31,31,29,28,92,81,68,30.21,30.06,29.88,10,10,7,12,7,17,0.01,,Snow,281
2013-2-26,38,34,31,32,30,28,99,85,68,30.32,30.27,30.18,10,8,2,7,2,,0.00,,Snow,92
2013-2-27,35,34,32,32,30,27,96,88,76,30.18,29.92,29.67,10,5,1,15,6,24,0.06,,Snow,100
2013-2-28,44,37,30,35,32,29,100,83,62,29.65,29.56,29.51,10,9,4,9,2,,0.01,,Rain-Snow,231